地図

経路データ

SID SEASON NUMBER BASIN SUBBASIN NAME ISO_TIME NATURE LAT LON WMO_WIND WMO_PRES WMO_AGENCY TRACK_TYPE DIST2LAND LANDFALL IFLAG USA_AGENCY USA_ATCF_ID USA_LAT USA_LON USA_RECORD USA_STATUS USA_WIND USA_PRES USA_SSHS USA_R34_NE USA_R34_SE USA_R34_SW USA_R34_NW USA_R50_NE USA_R50_SE USA_R50_SW USA_R50_NW USA_R64_NE USA_R64_SE USA_R64_SW USA_R64_NW USA_POCI USA_ROCI USA_RMW USA_EYE TOKYO_LAT TOKYO_LON TOKYO_GRADE TOKYO_WIND TOKYO_PRES TOKYO_R50_DIR TOKYO_R50_LONG TOKYO_R50_SHORT TOKYO_R30_DIR TOKYO_R30_LONG TOKYO_R30_SHORT TOKYO_LAND CMA_LAT CMA_LON CMA_CAT CMA_WIND CMA_PRES HKO_LAT HKO_LON HKO_CAT HKO_WIND HKO_PRES NEWDELHI_LAT NEWDELHI_LON NEWDELHI_GRADE NEWDELHI_WIND NEWDELHI_PRES NEWDELHI_CI NEWDELHI_DP NEWDELHI_POCI REUNION_LAT REUNION_LON REUNION_TYPE REUNION_WIND REUNION_PRES REUNION_TNUM REUNION_CI REUNION_RMW REUNION_R34_NE REUNION_R34_SE REUNION_R34_SW REUNION_R34_NW REUNION_R50_NE REUNION_R50_SE REUNION_R50_SW REUNION_R50_NW REUNION_R64_NE REUNION_R64_SE REUNION_R64_SW REUNION_R64_NW BOM_LAT BOM_LON BOM_TYPE BOM_WIND BOM_PRES BOM_TNUM BOM_CI BOM_RMW BOM_R34_NE BOM_R34_SE BOM_R34_SW BOM_R34_NW BOM_R50_NE BOM_R50_SE BOM_R50_SW BOM_R50_NW BOM_R64_NE BOM_R64_SE BOM_R64_SW BOM_R64_NW BOM_ROCI BOM_POCI BOM_EYE BOM_POS_METHOD BOM_PRES_METHOD NADI_LAT NADI_LON NADI_CAT NADI_WIND NADI_PRES WELLINGTON_LAT WELLINGTON_LON WELLINGTON_WIND WELLINGTON_PRES DS824_LAT DS824_LON DS824_STAGE DS824_WIND DS824_PRES TD9636_LAT TD9636_LON TD9636_STAGE TD9636_WIND TD9636_PRES TD9635_LAT TD9635_LON TD9635_WIND TD9635_PRES TD9635_ROCI NEUMANN_LAT NEUMANN_LON NEUMANN_CLASS NEUMANN_WIND NEUMANN_PRES MLC_LAT MLC_LON MLC_CLASS MLC_WIND MLC_PRES USA_GUST BOM_GUST BOM_GUST_PER REUNION_GUST REUNION_GUST_PER USA_SEAHGT USA_SEARAD_NE USA_SEARAD_SE USA_SEARAD_SW USA_SEARAD_NW STORM_SPEED STORM_DIR
1970266N16339 1970 119 NA NA NOT_NAMED 1970-09-22 12:00:00 TS 15.5000 -21.0000 20 hurdat_atl main 386 386 O_____________ hurdat_atl AL141970 15.5000 -21.0000 TD 20 -1 6 331
1970266N16339 1970 119 NA NA NOT_NAMED 1970-09-22 15:00:00 TS 15.7500 -21.1400 main 405 405 P_____________ AL141970 15.7500 -21.1400 TD 22 -1 6 330
1970266N16339 1970 119 NA NA NOT_NAMED 1970-09-22 18:00:00 TS 16.0000 -21.3000 25 hurdat_atl main 432 432 O_____________ hurdat_atl AL141970 16.0000 -21.3000 TD 25 -1 6 326
1970266N16339 1970 119 NA NA NOT_NAMED 1970-09-22 21:00:00 TS 16.2500 -21.4925 main 464 460 P_____________ AL141970 16.2500 -21.4925 TD 25 -1 6 322
1970266N16339 1970 119 NA NA NOT_NAMED 1970-09-23 00:00:00 TS 16.5000 -21.7000 25 hurdat_atl main 493 493 O_____________ hurdat_atl AL141970 16.5000 -21.7000 TD 25 -1 6 322
1970266N16339 1970 119 NA NA NOT_NAMED 1970-09-23 03:00:00 TS 16.7500 -21.9001 main 521 521 P_____________ AL141970 16.7500 -21.9001 TD 25 -1 6 322
1970266N16339 1970 119 NA NA NOT_NAMED 1970-09-23 06:00:00 TS 17.0000 -22.1000 25 hurdat_atl main 555 555 O_____________ hurdat_atl AL141970 17.0000 -22.1000 TD 25 -1 6 323
1970266N16339 1970 119 NA NA NOT_NAMED 1970-09-23 09:00:00 TS 17.2274 -22.2703 main 584 584 P_____________ AL141970 17.2274 -22.2703 TD 25 -1 6 323
1970266N16339 1970 119 NA NA NOT_NAMED 1970-09-23 12:00:00 TS 17.5000 -22.5000 25 hurdat_atl main 619 619 O_____________ hurdat_atl AL141970 17.5000 -22.5000 TD 25 -1 9 319
1970266N16339 1970 119 NA NA NOT_NAMED 1970-09-23 15:00:00 TS 17.8700 -22.8625 main 678 678 P_____________ AL141970 17.8700 -22.8625 TD 25 -1 11 316
1970266N16339 1970 119 NA NA NOT_NAMED 1970-09-23 18:00:00 TS 18.3000 -23.3000 25 hurdat_atl main 707 707 O_____________ hurdat_atl AL141970 18.3000 -23.3000 TD 25 -1 12 316
1970266N16339 1970 119 NA NA NOT_NAMED 1970-09-23 21:00:00 TS 18.7424 -23.7426 main 729 729 P_____________ AL141970 18.7424 -23.7426 TD 25 -1 12 317
1970266N16339 1970 119 NA NA NOT_NAMED 1970-09-24 00:00:00 TS 19.2000 -24.2000 25 hurdat_atl main 763 763 O_____________ hurdat_atl AL141970 19.2000 -24.2000 TD 25 -1 13 317
1970266N16339 1970 119 NA NA NOT_NAMED 1970-09-24 03:00:00 TS 19.6499 -24.6503 main 804 802 P_____________ AL141970 19.6499 -24.6503 TD 25 -1 12 317
1970266N16339 1970 119 NA NA NOT_NAMED 1970-09-24 06:00:00 TS 20.1000 -25.1000 25 hurdat_atl main 836 835 O_____________ hurdat_atl AL141970 20.1000 -25.1000 TD 25 -1 12 317
1970266N16339 1970 119 NA NA NOT_NAMED 1970-09-24 09:00:00 TS 20.5648 -25.5427 main 873 873 P_____________ AL141970 20.5648 -25.5427 TD 25 -1 12 317
1970266N16339 1970 119 NA NA NOT_NAMED 1970-09-24 12:00:00 TS 21.0000 -26.0000 25 hurdat_atl main 924 924 O_____________ hurdat_atl AL141970 21.0000 -26.0000 TD 25 -1 12 312
1970266N16339 1970 119 NA NA NOT_NAMED 1970-09-24 15:00:00 TS 21.3574 -26.4929 main 977 977 P_____________ AL141970 21.3574 -26.4929 TD 25 -1 12 307
1970266N16339 1970 119 NA NA NOT_NAMED 1970-09-24 18:00:00 TS 21.7000 -27.0000 25 hurdat_atl main 1030 1030 O_____________ hurdat_atl AL141970 21.7000 -27.0000 TD 25 -1 12 308
1970266N16339 1970 119 NA NA NOT_NAMED 1970-09-24 21:00:00 TS 22.0998 -27.5001 main 1082 1082 P_____________ AL141970 22.0998 -27.5001 TD 25 -1 12 311
1970266N16339 1970 119 NA NA NOT_NAMED 1970-09-25 00:00:00 TS 22.5000 -28.0000 25 hurdat_atl main 1134 1134 O_____________ hurdat_atl AL141970 22.5000 -28.0000 TD 25 -1 12 309
1970266N16339 1970 119 NA NA NOT_NAMED 1970-09-25 03:00:00 TS 22.8498 -28.5004 main 1187 1187 P_____________ AL141970 22.8498 -28.5004 TD 25 -1 12 307
1970266N16339 1970 119 NA NA NOT_NAMED 1970-09-25 06:00:00 TS 23.2000 -29.0000 25 hurdat_atl main 1241 1241 O_____________ hurdat_atl AL141970 23.2000 -29.0000 TD 25 -1 12 309
1970266N16339 1970 119 NA NA NOT_NAMED 1970-09-25 09:00:00 TS 23.5923 -29.5002 main 1297 1297 P_____________ AL141970 23.5923 -29.5002 TD 22 -1 12 311
1970266N16339 1970 119 NA NA NOT_NAMED 1970-09-25 12:00:00 TS 24.0000 -30.0000 20 hurdat_atl main 1353 1353 O_____________ hurdat_atl AL141970 24.0000 -30.0000 TD 20 -1 12 312
1970266N16339 1970 119 NA NA NOT_NAMED 1970-09-25 15:00:00 TS 24.4028 -30.4994 main 1409 1409 P_____________ AL141970 24.4028 -30.4994 TD 20 -1 12 311
1970266N16339 1970 119 NA NA NOT_NAMED 1970-09-25 18:00:00 TS 24.8000 -31.0000 20 hurdat_atl main 1460 O_____________ hurdat_atl AL141970 24.8000 -31.0000 TD 20 -1 12 311

IBTrACS Databaseについて

本データベースは、米国NOAAが公開する1842年以降の世界の熱帯低気圧のベストトラックデータアーカイブInternational Best Track Archive for Climate Stewardship (IBTrACS)を、ウェブで閲覧しやすい形式に変換したものです。

最終更新日:2021-10-25